Time;durP1;ratioP1;P1;durP2;ratioP2;P2;SDS_P1;SDS_P2;PMS_P1;PMS_P2;Temp;Humidity;BMP_temperature;BMP_pressure;BME280_temperature;BME280_humidity;BME280_pressure;Samples;Min_cycle;Max_cycle;Signal;HPM_P1;HPM_P2
2022/01/19 00:01:06;;;;;;;0.40;0.20;;;0.00;99.90;;;;;;5070201;28;20380;-71
2022/01/19 00:03:32;;;;;;;0.40;0.27;;;0.10;99.90;;;;;;5069665;28;20448;-71
2022/01/19 00:05:58;;;;;;;0.40;0.20;;;0.10;99.90;;;;;;5070499;28;20387;-72
2022/01/19 00:08:26;;;;;;;0.40;0.20;;;0.20;99.90;;;;;;5069765;28;20387;-71
2022/01/19 00:10:52;;;;;;;0.40;0.20;;;0.20;99.90;;;;;;5070478;28;20871;-71
2022/01/19 00:13:18;;;;;;;0.40;0.20;;;0.10;99.90;;;;;;5069795;28;20372;-73
2022/01/19 00:15:44;;;;;;;0.40;0.20;;;0.00;99.90;;;;;;5085266;28;20425;-71
2022/01/19 00:18:10;;;;;;;0.40;0.20;;;0.00;99.90;;;;;;5090231;28;20402;-71
2022/01/19 00:20:36;;;;;;;0.40;0.20;;;0.10;99.90;;;;;;5089837;28;20376;-71
2022/01/19 00:23:04;;;;;;;0.40;0.20;;;0.20;99.90;;;;;;5090075;28;20378;-71
2022/01/19 00:25:30;;;;;;;0.40;0.20;;;0.20;99.90;;;;;;5089347;28;20374;-70
2022/01/19 00:27:56;;;;;;;0.90;0.90;;;0.40;99.90;;;;;;5090383;28;20484;-71
2022/01/19 00:30:22;;;;;;;0.40;0.20;;;0.30;99.90;;;;;;5090180;28;20386;-71
2022/01/19 00:32:48;;;;;;;0.40;0.40;;;0.10;99.90;;;;;;5089741;28;21114;-71
2022/01/19 00:35:14;;;;;;;0.40;0.20;;;0.20;99.90;;;;;;5090403;28;20389;-71
2022/01/19 00:37:41;;;;;;;0.60;0.60;;;0.20;99.90;;;;;;5089425;28;20982;-71
2022/01/19 00:40:09;;;;;;;0.40;0.30;;;0.10;99.90;;;;;;5089955;28;20935;-71
2022/01/19 00:42:35;;;;;;;0.40;0.20;;;0.00;99.90;;;;;;5089512;28;20449;-72
2022/01/19 00:45:04;;;;;;;0.40;0.20;;;0.10;99.90;;;;;;5090028;28;20488;-71
2022/01/19 00:47:30;;;;;;;0.40;0.30;;;0.10;99.90;;;;;;5089911;28;20382;-71
2022/01/19 00:49:56;;;;;;;0.40;0.20;;;0.20;99.90;;;;;;5089325;28;20373;-71
2022/01/19 00:52:21;;;;;;;0.40;0.20;;;0.20;99.90;;;;;;5090542;28;20465;-71
2022/01/19 00:54:47;;;;;;;0.40;0.20;;;0.10;99.90;;;;;;5090452;28;20424;-71
2022/01/19 00:57:13;;;;;;;0.40;0.20;;;0.10;99.90;;;;;;5091273;28;20402;-71
2022/01/19 00:59:38;;;;;;;0.40;0.30;;;0.10;99.90;;;;;;5108447;28;20437;-71
2022/01/19 01:02:05;;;;;;;0.40;0.20;;;0.10;99.90;;;;;;5110634;28;20455;-71
2022/01/19 01:04:32;;;;;;;0.40;0.20;;;0.20;99.90;;;;;;5111584;28;20368;-71
2022/01/19 01:06:58;;;;;;;0.40;0.20;;;0.20;99.90;;;;;;5110745;28;20385;-71
2022/01/19 01:09:25;;;;;;;0.40;0.20;;;0.20;99.90;;;;;;5111502;28;20407;-70
2022/01/19 01:12:10;;;;;;;0.40;0.20;;;0.30;99.90;;;;;;5110115;28;20396;-72
2022/01/19 01:20:09;;;;;;;0.40;0.20;;;0.20;99.90;;;;;;5110569;28;20379;-71
2022/01/19 01:22:35;;;;;;;0.40;0.20;;;0.10;99.90;;;;;;5111326;28;20365;-71
2022/01/19 01:25:01;;;;;;;0.40;0.20;;;-0.10;99.90;;;;;;5092095;28;20467;-72
2022/01/19 01:27:26;;;;;;;0.40;0.20;;;-0.10;99.90;;;;;;5110847;28;20472;-71
2022/01/19 01:29:52;;;;;;;0.40;0.20;;;-0.10;99.90;;;;;;5111208;28;20383;-71
2022/01/19 01:32:18;;;;;;;0.50;0.50;;;-0.10;99.90;;;;;;5092112;28;20940;-71
2022/01/19 01:34:44;;;;;;;0.40;0.20;;;-0.10;99.90;;;;;;5092930;28;20396;-69
2022/01/19 01:37:10;;;;;;;0.60;0.60;;;-0.10;99.90;;;;;;5110060;28;20399;-72
2022/01/19 01:39:36;;;;;;;0.40;0.20;;;-0.10;99.90;;;;;;5110880;28;20469;-71
2022/01/19 01:42:08;;;;;;;0.40;0.20;;;-0.20;99.90;;;;;;5092742;28;20864;-70
2022/01/19 01:44:36;;;;;;;0.40;0.20;;;-0.20;99.90;;;;;;5110327;28;20388;-70
2022/01/19 01:47:02;;;;;;;0.40;0.20;;;-0.20;99.90;;;;;;5110818;28;20387;-70
2022/01/19 01:49:42;;;;;;;0.40;0.20;;;-0.10;99.90;;;;;;5110193;28;20400;-70
2022/01/19 01:54:53;;;;;;;0.90;0.60;;;-0.10;99.90;;;;;;5111078;28;20528;-70
2022/01/19 01:57:19;;;;;;;0.40;0.20;;;-0.20;99.90;;;;;;5110430;28;20487;-70
2022/01/19 01:59:44;;;;;;;0.40;0.20;;;-0.30;99.90;;;;;;5110075;28;20377;-70
2022/01/19 02:02:10;;;;;;;0.40;0.20;;;-0.30;99.90;;;;;;5092476;28;20403;-70
2022/01/19 02:04:40;;;;;;;0.40;0.20;;;-0.30;99.90;;;;;;5109780;28;20372;-70
2022/01/19 02:09:55;;;;;;;0.40;0.20;;;-0.30;99.90;;;;;;5110055;28;20387;-70
2022/01/19 02:23:45;;;;;;;0.40;0.20;;;-0.50;99.90;;;;;;5113809;28;20414;-70
2022/01/19 02:26:18;;;;;;;0.50;0.50;;;-0.40;99.90;;;;;;5114474;28;20896;-70
2022/01/19 02:42:51;;;;;;;0.40;0.20;;;-0.40;99.90;;;;;;5114229;28;20721;-70
2022/01/19 02:50:28;;;;;;;0.80;0.60;;;-0.50;99.90;;;;;;5114173;28;20478;-70
2022/01/19 02:52:53;;;;;;;0.40;0.20;;;-0.60;99.90;;;;;;5113863;28;20392;-70
2022/01/19 02:55:19;;;;;;;0.40;0.20;;;-0.60;99.90;;;;;;5113153;28;20405;-70
2022/01/19 02:57:46;;;;;;;0.40;0.20;;;-0.60;99.90;;;;;;5095959;28;20416;-70
2022/01/19 03:11:10;;;;;;;0.40;0.30;;;-0.70;99.90;;;;;;5113816;28;20367;-70
2022/01/19 03:13:36;;;;;;;0.40;0.20;;;-0.70;99.90;;;;;;5112911;28;20514;-70
2022/01/19 03:16:01;;;;;;;0.40;0.20;;;-0.70;99.90;;;;;;5113981;28;20920;-70
2022/01/19 03:18:27;;;;;;;0.40;0.20;;;-0.70;99.90;;;;;;5113387;28;20884;-71
2022/01/19 03:20:53;;;;;;;0.40;0.20;;;-0.70;99.90;;;;;;5113309;28;20376;-70
2022/01/19 03:23:20;;;;;;;0.40;0.20;;;-0.70;99.90;;;;;;5113736;28;20379;-70
2022/01/19 03:25:50;;;;;;;0.40;0.20;;;-0.80;99.90;;;;;;5112969;28;20380;-70
2022/01/19 03:28:16;;;;;;;0.40;0.20;;;-0.80;99.90;;;;;;5113385;28;20381;-70
2022/01/19 03:30:47;;;;;;;0.40;0.40;;;-0.80;99.90;;;;;;5112560;28;20752;-71
2022/01/19 03:33:13;;;;;;;0.40;0.20;;;-0.80;99.90;;;;;;5094522;28;20392;-70
2022/01/19 03:35:39;;;;;;;0.40;0.30;;;-0.70;99.90;;;;;;5113251;28;20385;-70
2022/01/19 03:38:07;;;;;;;0.50;0.50;;;-0.70;99.90;;;;;;5094090;28;20404;-70
2022/01/19 03:40:33;;;;;;;0.40;0.20;;;-0.80;99.90;;;;;;5112963;28;20380;-70
2022/01/19 03:42:59;;;;;;;0.40;0.30;;;-0.80;99.90;;;;;;5112515;28;20373;-70
2022/01/19 03:45:25;;;;;;;0.40;0.20;;;-0.90;99.90;;;;;;5113453;28;20770;-70
2022/01/19 03:50:51;;;;;;;0.40;0.30;;;-0.70;99.90;;;;;;5050104;28;20404;-70
2022/01/19 03:53:17;;;;;;;0.40;0.30;;;-0.60;99.90;;;;;;5098790;28;20661;-70
2022/01/19 03:55:43;;;;;;;0.40;0.40;;;-0.70;99.90;;;;;;5112935;28;20455;-70
2022/01/19 03:58:09;;;;;;;0.40;0.20;;;-0.80;99.90;;;;;;5106957;28;20406;-70
2022/01/19 04:00:40;;;;;;;0.40;0.30;;;-0.80;99.90;;;;;;5074928;28;20397;-70
2022/01/19 04:03:07;;;;;;;0.40;0.20;;;-0.80;99.90;;;;;;5092225;28;20531;-71
2022/01/19 04:06:16;;;;;;;0.40;0.20;;;-0.80;99.90;;;;;;5091790;28;20858;-70
2022/01/19 04:08:25;;;;;;;0.40;0.20;;;-0.80;99.90;;;;;;5087242;28;20398;-70
2022/01/19 04:10:51;;;;;;;0.40;0.20;;;-0.80;99.90;;;;;;5057598;28;20432;-70
2022/01/19 04:15:54;;;;;;;0.40;0.30;;;-0.80;99.90;;;;;;5091596;28;20405;-70
2022/01/19 04:18:20;;;;;;;0.40;0.20;;;-0.90;99.90;;;;;;5091360;28;20431;-71
2022/01/19 04:20:50;;;;;;;0.40;0.20;;;-0.90;99.90;;;;;;5091473;28;20495;-70
2022/01/19 04:23:17;;;;;;;0.40;0.20;;;-0.90;99.90;;;;;;5091926;28;20378;-70
2022/01/19 04:25:43;;;;;;;0.40;0.20;;;-0.90;99.90;;;;;;5091219;28;20370;-70
2022/01/19 04:28:09;;;;;;;0.40;0.20;;;-0.90;99.90;;;;;;5091779;28;20384;-70
2022/01/19 04:30:36;;;;;;;0.40;0.30;;;-0.90;99.90;;;;;;5090874;28;20742;-70
2022/01/19 04:36:07;;;;;;;1.10;0.40;;;-0.90;99.90;;;;;;5087125;28;20564;-70
2022/01/19 05:05:31;;;;;;;0.40;0.20;;;-0.80;99.90;;;;;;5090806;28;20385;-71
2022/01/19 05:08:48;;;;;;;0.40;0.20;;;-0.90;99.90;;;;;;5090745;28;20481;-71
2022/01/19 05:13:26;;;;;;;0.40;0.20;;;-0.90;99.90;;;;;;5090611;28;20469;-71
2022/01/19 05:15:53;;;;;;;0.40;0.20;;;-0.90;99.90;;;;;;5090998;28;20410;-71
2022/01/19 05:18:19;;;;;;;0.40;0.20;;;-0.80;99.90;;;;;;5090195;28;20433;-71
2022/01/19 05:20:48;;;;;;;0.40;0.20;;;-0.90;99.90;;;;;;5091266;28;20389;-71
2022/01/19 05:23:16;;;;;;;0.40;0.20;;;-0.80;99.90;;;;;;5091261;28;20809;-71
2022/01/19 05:25:42;;;;;;;0.40;0.20;;;-0.80;99.90;;;;;;5073266;28;20497;-71
2022/01/19 05:28:08;;;;;;;0.60;0.60;;;-0.80;99.90;;;;;;5090869;28;20386;-71
2022/01/19 05:30:34;;;;;;;0.40;0.20;;;-0.80;99.90;;;;;;5090981;28;20396;-71
2022/01/19 05:32:59;;;;;;;0.40;0.20;;;-0.80;99.90;;;;;;5090904;28;20404;-71
2022/01/19 05:35:27;;;;;;;0.40;0.20;;;-0.80;99.90;;;;;;5093497;28;20392;-71
2022/01/19 05:37:53;;;;;;;0.40;0.20;;;-0.80;99.90;;;;;;5095804;28;20432;-72
2022/01/19 05:40:19;;;;;;;0.40;0.20;;;-1.00;99.90;;;;;;5089065;28;20388;-71
2022/01/19 05:42:47;;;;;;;0.40;0.30;;;-0.90;99.90;;;;;;5095770;28;20389;-71
2022/01/19 05:45:13;;;;;;;0.40;0.20;;;-1.00;99.90;;;;;;5102371;28;20580;-72
2022/01/19 05:47:39;;;;;;;0.40;0.40;;;-0.80;99.90;;;;;;5094237;28;20388;-73
2022/01/19 05:50:05;;;;;;;0.40;0.28;;;-0.90;99.90;;;;;;5085184;28;20854;-71
2022/01/19 05:52:31;;;;;;;0.40;0.20;;;-0.90;99.90;;;;;;5102113;28;20412;-71
2022/01/19 05:54:57;;;;;;;0.40;0.20;;;-0.90;99.90;;;;;;5095007;28;20468;-71
2022/01/19 05:57:22;;;;;;;0.40;0.20;;;-1.00;99.90;;;;;;5109019;28;20440;-71
2022/01/19 05:59:48;;;;;;;0.40;0.20;;;-1.00;99.90;;;;;;5099402;28;20391;-73
2022/01/19 06:02:16;;;;;;;0.40;0.20;;;-0.90;99.90;;;;;;5114677;28;20382;-71
2022/01/19 06:04:42;;;;;;;0.40;0.20;;;-0.80;99.90;;;;;;5101891;28;20820;-71
2022/01/19 06:07:08;;;;;;;0.50;0.50;;;-0.80;99.90;;;;;;5093716;28;20389;-71
2022/01/19 06:09:36;;;;;;;1.80;0.80;;;-0.70;99.90;;;;;;5110995;28;20739;-71
2022/01/19 06:12:07;;;;;;;0.40;0.20;;;-0.70;99.90;;;;;;5100948;28;20488;-72
2022/01/19 06:14:35;;;;;;;0.40;0.30;;;-0.70;99.90;;;;;;5114730;28;20407;-71
2022/01/19 06:17:02;;;;;;;0.40;0.20;;;-0.60;99.90;;;;;;5080841;28;20889;-73
2022/01/19 06:19:27;;;;;;;0.40;0.20;;;-0.70;99.90;;;;;;5099937;28;20389;-71
2022/01/19 06:21:53;;;;;;;0.40;0.20;;;-0.70;99.90;;;;;;5090560;28;20854;-71
2022/01/19 06:24:19;;;;;;;0.40;0.20;;;-0.80;99.90;;;;;;5075501;28;20397;-71
2022/01/19 06:26:45;;;;;;;0.40;0.30;;;-0.80;99.90;;;;;;5094078;28;20382;-71
2022/01/19 06:29:11;;;;;;;0.40;0.20;;;-0.80;99.90;;;;;;5110240;28;20388;-72
2022/01/19 06:31:37;;;;;;;0.40;0.20;;;-0.80;99.90;;;;;;5093770;28;20377;-73
2022/01/19 06:34:03;;;;;;;0.40;0.20;;;-0.70;99.90;;;;;;5098027;28;20501;-72
2022/01/19 06:36:29;;;;;;;0.40;0.20;;;-0.70;99.90;;;;;;5104120;28;20384;-72
2022/01/19 06:38:54;;;;;;;0.90;0.90;;;-0.80;99.90;;;;;;5101552;28;20406;-72
2022/01/19 06:41:20;;;;;;;0.40;0.20;;;-0.80;99.90;;;;;;5076803;28;20398;-72
2022/01/19 06:43:46;;;;;;;0.40;0.20;;;-0.80;99.90;;;;;;5100888;28;20466;-72
2022/01/19 06:46:11;;;;;;;0.40;0.20;;;-0.80;99.90;;;;;;5106813;28;20400;-71
2022/01/19 06:48:37;;;;;;;0.40;0.40;;;-0.90;99.90;;;;;;5076245;28;20393;-72
2022/01/19 06:51:03;;;;;;;0.50;0.50;;;-0.90;99.90;;;;;;5093679;28;20386;-72
2022/01/19 06:53:29;;;;;;;0.40;0.20;;;-0.90;99.90;;;;;;5092991;28;20736;-72
2022/01/19 06:55:57;;;;;;;0.40;0.20;;;-0.80;99.90;;;;;;5093909;28;20865;-72
2022/01/19 06:58:24;;;;;;;0.40;0.20;;;-0.80;99.90;;;;;;5093711;28;20402;-71
2022/01/19 07:00:50;;;;;;;0.40;0.20;;;-0.80;99.90;;;;;;5093102;28;20381;-72
2022/01/19 07:03:16;;;;;;;0.40;0.20;;;-0.80;99.90;;;;;;5093815;28;20406;-71
2022/01/19 07:05:42;;;;;;;0.40;0.20;;;-0.80;99.90;;;;;;5092705;28;20418;-72
2022/01/19 07:08:07;;;;;;;0.40;0.20;;;-0.90;99.90;;;;;;5093416;28;20393;-71
2022/01/19 07:10:36;;;;;;;0.40;0.20;;;-0.80;99.90;;;;;;5075396;28;20518;-71
2022/01/19 07:13:04;;;;;;;0.40;0.30;;;-0.80;99.90;;;;;;5093120;28;20382;-72
2022/01/19 07:15:30;;;;;;;0.60;0.60;;;-0.80;99.90;;;;;;5093410;28;20418;-71
2022/01/19 07:17:59;;;;;;;0.40;0.20;;;-0.80;99.90;;;;;;5093468;28;20455;-72
2022/01/19 07:20:24;;;;;;;0.50;0.50;;;-0.80;99.90;;;;;;5075804;28;20477;-71
2022/01/19 07:22:51;;;;;;;0.40;0.20;;;-0.90;99.90;;;;;;5092380;28;20461;-72
2022/01/19 07:25:17;;;;;;;0.40;0.20;;;-0.80;99.90;;;;;;5093250;28;20661;-71
2022/01/19 07:27:43;;;;;;;0.40;0.20;;;-0.80;99.90;;;;;;5093136;28;20507;-71
2022/01/19 07:30:10;;;;;;;0.60;0.60;;;-0.80;99.90;;;;;;5092536;28;20414;-71
2022/01/19 07:32:37;;;;;;;0.40;0.20;;;-0.70;99.90;;;;;;5093042;28;20413;-71
2022/01/19 07:35:05;;;;;;;0.40;0.40;;;-0.80;99.90;;;;;;5092036;28;20378;-71
2022/01/19 07:37:31;;;;;;;0.50;0.50;;;-0.90;99.90;;;;;;5074983;28;20451;-70
2022/01/19 07:39:57;;;;;;;0.80;0.80;;;-0.90;99.90;;;;;;5074023;28;20378;-72
2022/01/19 07:42:24;;;;;;;0.40;0.20;;;-0.80;99.90;;;;;;5093420;28;20374;-70
2022/01/19 07:44:50;;;;;;;0.40;0.20;;;-0.90;99.90;;;;;;5074415;28;20890;-70
2022/01/19 07:47:16;;;;;;;0.40;0.30;;;-0.70;99.90;;;;;;5092234;28;20388;-70
2022/01/19 07:49:42;;;;;;;0.40;0.20;;;-0.80;99.90;;;;;;5058167;28;20382;-70
2022/01/19 07:52:08;;;;;;;0.40;0.20;;;-0.70;99.90;;;;;;5073923;28;20803;-71
2022/01/19 07:54:34;;;;;;;0.40;0.25;;;-0.60;99.90;;;;;;5092632;28;20848;-71
2022/01/19 07:56:59;;;;;;;0.40;0.20;;;-0.60;99.90;;;;;;5092289;28;20378;-71
2022/01/19 07:59:25;;;;;;;0.40;0.20;;;-0.60;99.90;;;;;;5073721;28;21020;-71
2022/01/19 08:01:53;;;;;;;0.40;0.30;;;-0.50;99.90;;;;;;5092688;28;20386;-71
2022/01/19 08:04:19;;;;;;;0.40;0.20;;;-0.50;99.90;;;;;;5091717;28;20378;-71
2022/01/19 08:06:45;;;;;;;0.40;0.20;;;-0.40;99.90;;;;;;5074418;28;20483;-71
2022/01/19 08:09:11;;;;;;;0.40;0.30;;;-0.40;99.90;;;;;;5092373;28;20391;-72
2022/01/19 08:11:40;;;;;;;0.40;0.20;;;-0.30;99.90;;;;;;5091968;28;20827;-71
2022/01/19 08:14:05;;;;;;;0.40;0.22;;;-0.30;99.90;;;;;;5092588;28;20753;-71
2022/01/19 08:16:31;;;;;;;0.40;0.20;;;-0.30;99.90;;;;;;5091649;28;20430;-71
2022/01/19 08:18:57;;;;;;;0.40;0.20;;;-0.20;99.90;;;;;;5074108;28;20494;-71
2022/01/19 08:21:26;;;;;;;0.40;0.20;;;-0.20;99.90;;;;;;5072840;28;20878;-72
2022/01/19 08:23:51;;;;;;;0.60;0.60;;;-0.20;99.90;;;;;;5092327;28;20400;-71
2022/01/19 08:26:17;;;;;;;0.40;0.20;;;-0.10;99.90;;;;;;5092035;28;20859;-71
2022/01/19 08:28:49;;;;;;;0.40;0.30;;;0.00;99.90;;;;;;5091436;28;20457;-71
2022/01/19 08:31:18;;;;;;;0.40;0.20;;;0.10;99.90;;;;;;5092183;28;20378;-70
2022/01/19 08:33:44;;;;;;;0.40;0.40;;;0.40;99.90;;;;;;5091339;28;20715;-71
2022/01/19 08:36:10;;;;;;;0.70;0.70;;;0.80;99.90;;;;;;5091540;28;20933;-71
2022/01/19 08:38:40;;;;;;;0.40;0.20;;;1.50;99.90;;;;;;5090907;28;20492;-71
2022/01/19 08:41:06;;;;;;;0.60;0.60;;;2.40;99.90;;;;;;5091790;28;20382;-71
2022/01/19 08:43:32;;;;;;;0.40;0.22;;;2.70;99.90;;;;;;5091027;28;20980;-72
2022/01/19 08:45:58;;;;;;;0.40;0.20;;;3.00;99.90;;;;;;5091792;28;20461;-71
2022/01/19 08:48:25;;;;;;;0.40;0.40;;;3.40;99.90;;;;;;5091911;28;20374;-71
2022/01/19 08:50:51;;;;;;;0.40;0.40;;;3.60;99.90;;;;;;5090840;28;20386;-71
2022/01/19 08:53:17;;;;;;;0.40;0.20;;;3.80;99.90;;;;;;5073520;28;20480;-71
2022/01/19 08:55:42;;;;;;;0.40;0.20;;;3.90;99.90;;;;;;5073073;28;20503;-72
2022/01/19 08:58:10;;;;;;;0.40;0.20;;;4.40;99.90;;;;;;5095994;28;20487;-71
2022/01/19 09:00:37;;;;;;;0.40;0.20;;;4.60;99.90;;;;;;5111910;28;20414;-71
2022/01/19 09:03:03;;;;;;;0.40;0.40;;;4.70;99.90;;;;;;5111122;28;20512;-71
2022/01/19 09:05:29;;;;;;;0.40;0.30;;;4.70;99.90;;;;;;5111473;28;20917;-72
2022/01/19 09:07:55;;;;;;;0.40;0.20;;;4.90;99.90;;;;;;5092661;28;20388;-71
2022/01/19 09:10:22;;;;;;;0.40;0.40;;;5.10;99.90;;;;;;5111728;28;20415;-71
2022/01/19 09:12:48;;;;;;;0.40;0.30;;;5.10;99.90;;;;;;5111069;28;20391;-72
2022/01/19 09:15:15;;;;;;;1.23;0.80;;;5.00;99.90;;;;;;5093106;28;20864;-71
2022/01/19 09:17:43;;;;;;;0.40;0.20;;;5.10;99.90;;;;;;5093320;28;20419;-71
2022/01/19 09:20:11;;;;;;;0.40;0.22;;;5.20;99.90;;;;;;5110773;28;20372;-71
2022/01/19 09:22:37;;;;;;;3.40;0.90;;;5.30;99.90;;;;;;5111448;28;20791;-71
2022/01/19 09:25:05;;;;;;;0.40;0.40;;;5.30;99.90;;;;;;5110766;28;20463;-71
2022/01/19 09:27:31;;;;;;;0.40;0.33;;;5.40;99.90;;;;;;5111428;28;20471;-71
2022/01/19 09:29:57;;;;;;;0.70;0.70;;;5.40;99.90;;;;;;5110456;28;20456;-73
2022/01/19 09:32:24;;;;;;;0.40;0.20;;;5.30;99.90;;;;;;5110545;28;20392;-71
2022/01/19 09:34:55;;;;;;;0.40;0.20;;;5.50;99.90;;;;;;5111481;28;20416;-71
2022/01/19 09:37:22;;;;;;;0.40;0.20;;;5.60;99.90;;;;;;5110729;28;20955;-71
2022/01/19 09:39:49;;;;;;;0.40;0.30;;;5.80;99.90;;;;;;5111110;28;20736;-71
2022/01/19 09:42:14;;;;;;;0.90;0.90;;;5.90;99.90;;;;;;5110482;28;20396;-71
2022/01/19 09:44:40;;;;;;;0.40;0.20;;;5.80;99.90;;;;;;5110995;28;20415;-71
2022/01/19 09:47:07;;;;;;;0.40;0.20;;;5.90;99.90;;;;;;5110190;28;20794;-71
2022/01/19 09:49:33;;;;;;;0.40;0.30;;;5.90;99.90;;;;;;5111321;28;20519;-71
2022/01/19 09:52:00;;;;;;;0.40;0.20;;;5.90;99.90;;;;;;5111133;28;20421;-71
2022/01/19 09:54:29;;;;;;;1.10;0.50;;;5.80;99.90;;;;;;5110470;28;20987;-71
2022/01/19 09:56:55;;;;;;;0.50;0.50;;;5.80;99.90;;;;;;5111063;28;20467;-71
2022/01/19 09:59:23;;;;;;;1.60;0.80;;;5.70;99.90;;;;;;5095119;28;20456;-71
2022/01/19 10:01:52;;;;;;;0.70;0.70;;;5.80;99.90;;;;;;5072706;28;20374;-71
2022/01/19 10:04:24;;;;;;;0.47;0.38;;;5.70;99.90;;;;;;5090000;28;20383;-71
2022/01/19 10:07:08;;;;;;;0.40;0.30;;;5.80;99.90;;;;;;5072494;28;20459;-70
2022/01/19 10:09:47;;;;;;;0.40;0.20;;;5.90;99.90;;;;;;5089908;28;21138;-71
2022/01/19 10:17:37;;;;;;;0.40;0.20;;;6.00;99.90;;;;;;5089672;28;20404;-71
2022/01/19 10:20:04;;;;;;;0.40;0.30;;;6.00;99.90;;;;;;5090412;28;20378;-71
2022/01/19 10:22:32;;;;;;;0.40;0.20;;;6.00;99.90;;;;;;5090038;28;20386;-71
2022/01/19 10:25:01;;;;;;;0.40;0.20;;;6.00;99.90;;;;;;5090654;28;20859;-70
2022/01/19 10:27:35;;;;;;;0.40;0.20;;;5.90;99.90;;;;;;5089660;28;20442;-71
2022/01/19 10:30:04;;;;;;;0.70;0.70;;;5.90;99.90;;;;;;5090870;28;20397;-71
2022/01/19 10:32:36;;;;;;;0.50;0.50;;;5.90;99.90;;;;;;5089725;28;20374;-71
2022/01/19 10:35:14;;;;;;;0.68;0.45;;;5.70;99.90;;;;;;5090668;28;20448;-71
2022/01/19 10:37:40;;;;;;;1.10;0.80;;;5.50;99.90;;;;;;5089449;28;20402;-70
2022/01/19 10:40:06;;;;;;;0.40;0.20;;;5.30;99.90;;;;;;5090405;28;20382;-71
2022/01/19 10:42:33;;;;;;;0.50;0.50;;;5.30;99.90;;;;;;5089989;28;20452;-71
2022/01/19 10:45:04;;;;;;;0.40;0.28;;;5.20;99.90;;;;;;5094086;28;20385;-71
2022/01/19 10:47:37;;;;;;;0.40;0.20;;;5.30;99.90;;;;;;5093678;28;20398;-72
2022/01/19 10:50:04;;;;;;;1.00;0.60;;;5.20;99.90;;;;;;5094133;28;20374;-71
2022/01/19 10:52:39;;;;;;;0.50;0.50;;;5.20;99.90;;;;;;5094029;28;20375;-71
2022/01/19 10:55:09;;;;;;;0.40;0.40;;;5.20;99.90;;;;;;5094021;28;20382;-71
2022/01/19 10:57:38;;;;;;;0.80;0.80;;;5.20;99.90;;;;;;5093527;28;20394;-73
2022/01/19 11:00:25;;;;;;;1.80;1.70;;;5.20;99.90;;;;;;5114074;28;20380;-71
2022/01/19 11:02:56;;;;;;;0.40;0.20;;;5.10;99.90;;;;;;5095122;28;20515;-71
2022/01/19 11:05:40;;;;;;;0.40;0.20;;;5.30;99.90;;;;;;5114466;28;20380;-71
2022/01/19 11:08:06;;;;;;;0.40;0.20;;;5.40;99.90;;;;;;5113607;28;20820;-71
2022/01/19 11:10:32;;;;;;;0.40;0.30;;;5.60;99.90;;;;;;5095823;28;20445;-71
2022/01/19 11:12:58;;;;;;;0.50;0.50;;;5.70;99.90;;;;;;5113085;28;20368;-71
2022/01/19 11:15:24;;;;;;;0.40;0.20;;;5.90;99.90;;;;;;5095431;28;20772;-70
2022/01/19 11:17:50;;;;;;;0.40;0.20;;;6.10;99.90;;;;;;5112989;28;20457;-72
2022/01/19 11:20:23;;;;;;;0.40;0.20;;;6.10;99.90;;;;;;5113727;28;20737;-71
2022/01/19 11:23:07;;;;;;;0.40;0.20;;;6.30;99.90;;;;;;5113886;28;20380;-72
2022/01/19 11:26:18;;;;;;;0.40;0.30;;;6.20;99.90;;;;;;5113935;28;20377;-71
2022/01/19 11:28:47;;;;;;;0.40;0.20;;;6.30;99.90;;;;;;5109336;28;20899;-70
2022/01/19 11:31:14;;;;;;;0.40;0.20;;;6.60;99.90;;;;;;5112650;28;20435;-70
2022/01/19 11:33:51;;;;;;;0.70;0.60;;;7.20;99.90;;;;;;5113755;28;20392;-71
2022/01/19 11:36:28;;;;;;;0.40;0.20;;;7.40;99.90;;;;;;5094607;28;20570;-70
2022/01/19 11:39:13;;;;;;;0.40;0.30;;;6.80;99.90;;;;;;5113205;28;20408;-70
2022/01/19 11:41:49;;;;;;;0.40;0.40;;;6.50;99.90;;;;;;5113633;28;20430;-70
2022/01/19 11:44:20;;;;;;;0.40;0.30;;;6.40;99.90;;;;;;5112762;28;20396;-71
2022/01/19 11:46:48;;;;;;;0.40;0.40;;;6.50;99.90;;;;;;5113216;28;20867;-70
2022/01/19 11:49:19;;;;;;;1.20;0.70;;;7.20;99.90;;;;;;5112622;28;20380;-71
2022/01/19 11:51:55;;;;;;;0.55;0.45;;;7.10;99.90;;;;;;5095587;28;20380;-71
2022/01/19 11:54:36;;;;;;;0.50;0.50;;;7.40;99.50;;;;;;5111788;28;20368;-71
2022/01/19 11:57:02;;;;;;;3.15;0.75;;;7.30;99.90;;;;;;5095194;28;20891;-71
2022/01/19 11:59:50;;;;;;;0.40;0.30;;;7.70;99.10;;;;;;5096466;28;20405;-72
2022/01/19 12:02:24;;;;;;;0.43;0.32;;;7.60;97.80;;;;;;5073923;28;20862;-72
2022/01/19 12:05:01;;;;;;;0.40;0.20;;;7.80;97.60;;;;;;5092712;28;20394;-71
2022/01/19 12:07:52;;;;;;;0.40;0.20;;;7.70;97.30;;;;;;5091784;28;20413;-71
2022/01/19 12:10:20;;;;;;;0.40;0.30;;;7.40;98.50;;;;;;5092100;28;20405;-73
2022/01/19 12:13:42;;;;;;;0.40;0.20;;;7.40;98.70;;;;;;5092592;28;20392;-72
2022/01/19 12:19:07;;;;;;;0.40;0.20;;;8.20;96.80;;;;;;5092432;28;20414;-71
2022/01/19 12:21:45;;;;;;;0.50;0.50;;;8.60;95.00;;;;;;5091317;28;20917;-71
2022/01/19 12:24:19;;;;;;;0.40;0.30;;;8.30;95.20;;;;;;5091980;28;20782;-71
2022/01/19 12:26:57;;;;;;;0.40;0.20;;;8.10;94.50;;;;;;5091013;28;20405;-71
2022/01/19 12:29:36;;;;;;;0.40;0.40;;;8.70;93.60;;;;;;5092394;28;20374;-70
2022/01/19 12:32:15;;;;;;;0.40;0.30;;;8.60;94.20;;;;;;5092271;28;20382;-71
2022/01/19 12:34:49;;;;;;;0.40;0.20;;;8.90;92.50;;;;;;5091080;28;20374;-71
2022/01/19 12:37:44;;;;;;;0.60;0.60;;;8.40;92.40;;;;;;5091996;28;20378;-70
2022/01/19 12:40:19;;;;;;;0.40;0.30;;;8.60;91.90;;;;;;5088898;28;20759;-71
2022/01/19 12:42:48;;;;;;;0.40;0.20;;;8.70;91.60;;;;;;5072920;28;20854;-71
2022/01/19 12:45:18;;;;;;;0.40;0.30;;;8.90;91.90;;;;;;5091453;28;20394;-70
2022/01/19 12:47:45;;;;;;;0.40;0.20;;;8.70;91.80;;;;;;5090812;28;20906;-71
2022/01/19 12:50:11;;;;;;;0.50;0.50;;;7.80;93.10;;;;;;5091605;28;20843;-71
2022/01/19 12:52:53;;;;;;;0.40;0.20;;;7.60;94.20;;;;;;5073712;28;20390;-71
2022/01/19 12:55:23;;;;;;;0.40;0.30;;;7.40;95.30;;;;;;5091716;28;20730;-71
2022/01/19 12:57:49;;;;;;;0.40;0.20;;;7.30;94.90;;;;;;5092612;28;20413;-71
2022/01/19 13:00:19;;;;;;;0.40;0.30;;;7.10;94.10;;;;;;5111956;28;20434;-71
2022/01/19 13:02:45;;;;;;;0.40;0.23;;;7.10;94.00;;;;;;5111393;28;20376;-72
2022/01/19 13:05:16;;;;;;;0.40;0.20;;;7.00;93.90;;;;;;5111292;28;20433;-71
2022/01/19 13:07:53;;;;;;;0.50;0.40;;;7.10;93.00;;;;;;5111430;28;20856;-71
2022/01/19 13:10:48;;;;;;;0.40;0.30;;;7.00;93.20;;;;;;5111604;28;20449;-71
2022/01/19 13:13:25;;;;;;;0.40;0.20;;;7.00;93.00;;;;;;5111263;28;20491;-71
2022/01/19 13:15:55;;;;;;;0.40;0.20;;;6.90;93.10;;;;;;5110984;28;20810;-74
2022/01/19 13:18:32;;;;;;;0.40;0.40;;;6.90;92.90;;;;;;5093145;28;20461;-72
2022/01/19 13:21:03;;;;;;;0.50;0.50;;;6.80;93.00;;;;;;5111134;28;20492;-72
2022/01/19 13:23:30;;;;;;;0.40;0.20;;;6.70;93.10;;;;;;5093450;28;20703;-72
2022/01/19 13:26:14;;;;;;;0.80;0.80;;;6.90;93.40;;;;;;5111196;28;20435;-74
2022/01/19 13:28:40;;;;;;;0.40;0.20;;;6.70;93.00;;;;;;5111727;28;20467;-72
2022/01/19 13:31:14;;;;;;;0.40;0.30;;;6.80;93.60;;;;;;5110483;28;20447;-74
2022/01/19 13:33:41;;;;;;;0.40;0.20;;;6.80;93.30;;;;;;5111469;28;20380;-72
2022/01/19 13:36:07;;;;;;;0.40;0.20;;;6.80;93.40;;;;;;5110797;28;20385;-72
2022/01/19 13:38:34;;;;;;;0.40;0.20;;;6.70;93.10;;;;;;5111374;28;20400;-72
2022/01/19 13:41:09;;;;;;;0.40;0.20;;;6.70;93.20;;;;;;5111312;28;20463;-71
2022/01/19 13:43:38;;;;;;;0.40;0.20;;;6.70;93.20;;;;;;5110972;28;20428;-71
2022/01/19 13:46:15;;;;;;;0.40;0.20;;;6.90;93.10;;;;;;5111235;28;20394;-73
2022/01/19 13:48:47;;;;;;;0.40;0.30;;;6.60;93.20;;;;;;5079806;28;20755;-72
2022/01/19 13:51:18;;;;;;;0.40;0.20;;;6.60;93.70;;;;;;5072285;28;20391;-71
2022/01/19 13:53:53;;;;;;;0.40;0.20;;;6.60;93.50;;;;;;5090568;28;20485;-72
2022/01/19 13:56:30;;;;;;;0.40;0.20;;;6.60;93.80;;;;;;5096166;28;20378;-73
2022/01/19 13:59:00;;;;;;;0.90;0.60;;;7.00;93.40;;;;;;5083626;28;20460;-73
2022/01/19 14:01:40;;;;;;;0.40;0.20;;;7.10;92.70;;;;;;5110378;28;20376;-70
2022/01/19 14:04:08;;;;;;;0.40;0.20;;;7.00;93.30;;;;;;5110003;28;20384;-70
2022/01/19 14:06:39;;;;;;;0.40;0.20;;;7.80;92.40;;;;;;5089914;28;20451;-71
2022/01/19 14:09:18;;;;;;;0.40;0.40;;;7.10;91.90;;;;;;5090705;28;20409;-70
2022/01/19 14:12:11;;;;;;;0.40;0.20;;;7.10;92.80;;;;;;5090247;28;20401;-70
2022/01/19 14:14:43;;;;;;;0.40;0.20;;;7.00;92.80;;;;;;5086185;28;20418;-71
2022/01/19 14:17:11;;;;;;;0.40;0.30;;;6.90;93.10;;;;;;5090421;28;20394;-70
2022/01/19 14:19:44;;;;;;;0.40;0.20;;;6.90;92.90;;;;;;5093451;28;20378;-71
2022/01/19 14:22:29;;;;;;;0.40;0.20;;;6.60;93.40;;;;;;5094268;28;20921;-70
2022/01/19 14:24:55;;;;;;;0.40;0.20;;;6.50;93.70;;;;;;5094621;28;20370;-71
2022/01/19 14:27:24;;;;;;;0.40;0.20;;;6.40;93.60;;;;;;5094564;28;20427;-70
2022/01/19 14:30:18;;;;;;;0.40;0.20;;;6.50;94.10;;;;;;5093852;28;20405;-70
2022/01/19 14:32:47;;;;;;;0.68;0.68;;;6.40;93.90;;;;;;5075497;28;20467;-71
2022/01/19 14:35:23;;;;;;;0.40;0.20;;;6.20;94.10;;;;;;5093998;28;20414;-71
2022/01/19 14:38:04;;;;;;;0.40;0.30;;;6.30;94.30;;;;;;5105680;28;20404;-71
2022/01/19 14:40:33;;;;;;;0.40;0.20;;;6.30;94.30;;;;;;5094066;28;20390;-71
2022/01/19 14:42:58;;;;;;;0.40;0.20;;;6.30;94.30;;;;;;5094028;28;20474;-71